createdAt,value
2023-02-11T00:02:18.748Z,5.50
2023-02-11T00:04:46.561Z,5.28
2023-02-11T00:07:14.380Z,4.82
2023-02-11T00:09:42.127Z,5.30
2023-02-11T00:12:09.862Z,4.13
2023-02-11T00:14:37.635Z,4.90
2023-02-11T00:17:05.401Z,4.72
2023-02-11T00:19:34.522Z,4.18
2023-02-11T00:22:02.259Z,5.45
2023-02-11T00:24:30.168Z,3.72
2023-02-11T00:26:57.931Z,6.22
2023-02-11T00:29:26.137Z,4.50
2023-02-11T00:31:54.012Z,4.53
2023-02-11T00:34:21.833Z,5.55
2023-02-11T00:36:51.903Z,6.88
2023-02-11T00:39:19.642Z,4.47
2023-02-11T00:41:47.415Z,3.95
2023-02-11T00:44:15.141Z,4.57
2023-02-11T00:46:42.960Z,3.90
2023-02-11T00:49:10.731Z,4.90
2023-02-11T00:51:38.723Z,3.45
2023-02-11T00:54:07.984Z,4.45
2023-02-11T00:56:35.850Z,4.78
2023-02-11T00:59:03.643Z,4.65
2023-02-11T01:01:31.487Z,4.95
2023-02-11T01:03:59.326Z,5.70
2023-02-11T01:06:27.063Z,8.50
2023-02-11T01:08:54.998Z,5.50
2023-02-11T01:11:24.146Z,4.30
2023-02-11T01:13:52.006Z,4.78
2023-02-11T01:16:21.286Z,3.90
2023-02-11T01:18:49.318Z,6.32
2023-02-11T01:21:17.077Z,3.90
2023-02-11T01:23:44.861Z,5.50
2023-02-11T01:26:12.670Z,5.68
2023-02-11T01:28:41.829Z,4.32
2023-02-11T01:31:09.723Z,4.45
2023-02-11T01:33:37.578Z,4.35
2023-02-11T01:36:06.760Z,4.35
2023-02-11T01:38:35.563Z,5.78
2023-02-11T01:41:05.958Z,3.60
2023-02-11T01:43:37.467Z,5.50
2023-02-11T01:46:21.102Z,5.40
2023-02-11T01:48:53.555Z,6.28
2023-02-11T01:51:28.563Z,4.50
2023-02-11T01:54:15.857Z,4.28
2023-02-11T01:57:04.887Z,4.47
2023-02-11T01:59:37.089Z,3.67
2023-02-11T02:02:09.210Z,6.10
2023-02-11T02:04:43.276Z,4.80
2023-02-11T02:07:15.343Z,5.22
2023-02-11T02:09:46.675Z,5.80
2023-02-11T02:12:14.475Z,4.80
2023-02-11T02:14:43.106Z,5.70
2023-02-11T02:17:32.092Z,6.28
2023-02-11T02:20:44.463Z,5.22
2023-02-11T02:23:37.065Z,4.72
2023-02-11T02:26:38.497Z,5.03
2023-02-11T02:29:44.751Z,5.45
2023-02-11T02:32:42.223Z,5.18
2023-02-11T02:35:18.916Z,6.70
2023-02-11T02:37:52.108Z,6.18
2023-02-11T02:40:23.703Z,5.68
2023-02-11T02:42:52.571Z,7.15
2023-02-11T02:45:20.960Z,6.97
2023-02-11T02:47:50.106Z,7.22
2023-02-11T02:50:25.021Z,8.25
2023-02-11T02:53:03.284Z,7.18
2023-02-11T02:55:51.544Z,7.45
2023-02-11T02:58:41.979Z,6.03
2023-02-11T03:01:18.162Z,7.13
2023-02-11T03:03:55.698Z,7.13
2023-02-11T03:06:32.703Z,7.15
2023-02-11T03:09:10.353Z,6.97
2023-02-11T03:11:39.917Z,6.63
2023-02-11T03:14:11.579Z,6.93
2023-02-11T03:16:43.200Z,7.22
2023-02-11T03:19:16.523Z,7.85
2023-02-11T03:21:46.183Z,7.30
2023-02-11T03:24:19.806Z,7.55
2023-02-11T03:26:51.047Z,7.80
2023-02-11T03:29:31.646Z,7.22
2023-02-11T03:32:05.508Z,7.63
2023-02-11T03:37:10.861Z,7.20
2023-02-11T03:39:43.018Z,7.93
2023-02-11T03:42:13.942Z,7.45
2023-02-11T03:44:46.143Z,8.65
2023-02-11T03:47:19.359Z,8.20
2023-02-11T03:49:50.907Z,8.18
2023-02-11T03:52:21.089Z,8.18
2023-02-11T03:54:52.660Z,9.27
2023-02-11T03:57:20.397Z,9.98
2023-02-11T03:59:53.195Z,9.70
2023-02-11T04:02:21.510Z,8.80
2023-02-11T04:04:50.703Z,9.13
2023-02-11T04:07:18.546Z,8.73
2023-02-11T04:09:46.353Z,8.75
2023-02-11T04:12:14.190Z,9.50
2023-02-11T04:14:41.986Z,11.60
2023-02-11T04:17:09.979Z,13.57
2023-02-11T04:19:38.020Z,16.05
2023-02-11T04:22:07.479Z,10.90
2023-02-11T04:24:35.292Z,11.27
2023-02-11T04:27:03.105Z,10.52
2023-02-11T04:29:30.946Z,9.82
2023-02-11T04:31:59.191Z,12.13
2023-02-11T04:34:27.022Z,9.05
2023-02-11T04:36:54.980Z,10.48
2023-02-11T04:39:24.130Z,10.38
2023-02-11T04:41:51.858Z,11.48
2023-02-11T04:44:19.573Z,10.95
2023-02-11T04:46:47.581Z,10.60
2023-02-11T04:49:15.888Z,11.38
2023-02-11T04:51:46.438Z,10.82
2023-02-11T04:54:15.494Z,11.27
2023-02-11T04:56:45.007Z,10.85
2023-02-11T04:59:13.450Z,11.57
2023-02-11T05:01:41.559Z,11.13
2023-02-11T05:04:09.389Z,11.13
2023-02-11T05:06:39.285Z,14.23
2023-02-11T05:09:07.183Z,14.30
2023-02-11T05:11:36.659Z,12.75
2023-02-11T05:14:06.513Z,11.90
2023-02-11T05:16:34.429Z,13.70
2023-02-11T05:19:02.334Z,12.23
2023-02-11T05:21:30.275Z,11.75
2023-02-11T05:23:58.158Z,12.93
2023-02-11T05:26:28.599Z,16.67
2023-02-11T05:28:56.371Z,13.50
2023-02-11T05:31:25.698Z,13.18
2023-02-11T05:33:53.468Z,14.10
2023-02-11T05:36:21.291Z,14.00
2023-02-11T05:38:49.088Z,14.27
2023-02-11T05:41:16.925Z,13.43
2023-02-11T05:43:44.781Z,14.38
2023-02-11T05:46:12.613Z,13.98
2023-02-11T05:48:41.745Z,12.90
2023-02-11T05:51:10.563Z,13.65
2023-02-11T05:53:38.353Z,13.55
2023-02-11T05:56:06.937Z,15.25
2023-02-11T05:58:34.692Z,14.13
2023-02-11T06:01:02.490Z,14.30
2023-02-11T06:03:30.353Z,16.30
2023-02-11T06:05:59.508Z,14.65
2023-02-11T06:08:27.307Z,14.60
2023-02-11T06:10:55.159Z,14.85
2023-02-11T06:13:23.016Z,13.82
2023-02-11T06:15:57.738Z,14.55
2023-02-11T06:18:25.534Z,12.70
2023-02-11T06:20:53.381Z,15.15
2023-02-11T06:23:22.867Z,14.32
2023-02-11T06:25:51.369Z,16.38
2023-02-11T06:28:19.511Z,15.38
2023-02-11T06:30:47.417Z,14.85
2023-02-11T06:33:15.231Z,15.00
2023-02-11T06:35:43.012Z,15.23
2023-02-11T06:38:10.792Z,14.63
2023-02-11T06:40:41.191Z,14.77
2023-02-11T06:43:08.932Z,16.17
2023-02-11T06:45:36.638Z,17.65
2023-02-11T06:48:04.616Z,15.15
2023-02-11T06:50:32.557Z,15.95
2023-02-11T06:53:00.472Z,16.15
2023-02-11T06:55:28.664Z,15.50
2023-02-11T06:57:57.848Z,17.13
2023-02-11T07:00:26.516Z,16.95
2023-02-11T07:02:54.360Z,16.45
2023-02-11T07:05:22.582Z,16.20
2023-02-11T07:07:50.426Z,17.05
2023-02-11T07:10:18.262Z,18.98
2023-02-11T07:12:46.101Z,16.33
2023-02-11T07:15:15.256Z,19.73
2023-02-11T07:17:43.013Z,17.05
2023-02-11T07:20:12.485Z,17.75
2023-02-11T07:22:40.294Z,19.75
2023-02-11T07:25:08.406Z,18.58
2023-02-11T07:27:36.244Z,18.45
2023-02-11T07:30:07.233Z,19.38
2023-02-11T07:32:36.599Z,20.10
2023-02-11T07:35:05.089Z,18.70
2023-02-11T07:37:34.746Z,17.80
2023-02-11T07:40:02.522Z,17.92
2023-02-11T07:42:30.266Z,18.92
2023-02-11T07:44:58.115Z,18.35
2023-02-11T07:47:25.901Z,19.02
2023-02-11T07:49:56.648Z,25.08
2023-02-11T07:52:24.877Z,20.63
2023-02-11T07:54:52.643Z,18.73
2023-02-11T07:57:20.365Z,19.77
2023-02-11T07:59:48.282Z,19.80
2023-02-11T08:02:16.086Z,20.90
2023-02-11T08:04:43.867Z,20.08
2023-02-11T08:07:15.521Z,23.05
2023-02-11T08:09:43.365Z,22.88
2023-02-11T08:12:11.278Z,20.30
2023-02-11T08:14:39.308Z,23.08
2023-02-11T08:17:07.083Z,22.23
2023-02-11T08:19:35.328Z,21.80
2023-02-11T08:22:03.197Z,25.38
2023-02-11T08:24:32.497Z,28.35
2023-02-11T08:27:00.195Z,22.67
2023-02-11T08:29:28.036Z,24.50
2023-02-11T08:31:55.800Z,25.65
2023-02-11T08:34:23.581Z,23.40
2023-02-11T08:36:51.364Z,23.42
2023-02-11T08:39:21.968Z,23.20
2023-02-11T08:41:53.335Z,24.38
2023-02-11T08:44:22.690Z,24.88
2023-02-11T08:46:51.390Z,25.77
2023-02-11T08:49:19.199Z,24.63
2023-02-11T08:51:47.834Z,24.65
2023-02-11T08:54:16.096Z,26.05
2023-02-11T08:56:44.053Z,32.50
2023-02-11T08:59:15.391Z,25.92
2023-02-11T09:01:44.278Z,27.10
2023-02-11T09:04:12.298Z,26.15
2023-02-11T09:06:40.265Z,26.95
2023-02-11T09:09:11.142Z,25.55
2023-02-11T09:11:39.415Z,25.83
2023-02-11T09:14:07.365Z,25.85
2023-02-11T09:16:37.765Z,27.63
2023-02-11T09:19:06.374Z,25.58
2023-02-11T09:21:34.742Z,26.73
2023-02-11T09:24:02.852Z,25.58
2023-02-11T09:26:32.269Z,25.05
2023-02-11T09:29:00.675Z,25.80
2023-02-11T09:31:31.028Z,25.42
2023-02-11T09:34:02.503Z,23.83
2023-02-11T09:36:33.070Z,27.83
2023-02-11T09:39:03.023Z,26.15
2023-02-11T09:41:57.219Z,24.90
2023-02-11T09:44:28.378Z,25.10
2023-02-11T09:46:58.913Z,24.77
2023-02-11T09:49:36.298Z,24.02
2023-02-11T09:52:09.545Z,26.75
2023-02-11T09:54:43.504Z,26.35
2023-02-11T09:57:26.580Z,23.48
2023-02-11T09:59:55.686Z,23.70
2023-02-11T10:02:28.665Z,23.15
2023-02-11T10:05:25.815Z,21.60
2023-02-11T10:08:02.344Z,23.50
2023-02-11T10:10:43.469Z,22.17
2023-02-11T10:13:35.018Z,22.65
2023-02-11T10:16:11.102Z,23.98
2023-02-11T10:18:55.421Z,22.27
2023-02-11T10:21:34.029Z,23.38
2023-02-11T10:24:05.459Z,21.88
2023-02-11T10:26:37.224Z,21.55
2023-02-11T10:29:16.590Z,26.25
2023-02-11T10:31:47.772Z,25.90
2023-02-11T10:34:16.421Z,23.80
2023-02-11T10:36:46.780Z,22.50
2023-02-11T10:39:17.274Z,22.33
2023-02-11T10:41:47.436Z,23.88
2023-02-11T10:44:25.881Z,22.10
2023-02-11T10:46:54.800Z,23.48
2023-02-11T10:49:37.381Z,25.70
2023-02-11T10:52:21.320Z,24.50
2023-02-11T10:54:57.983Z,22.35
2023-02-11T10:57:29.121Z,22.52
2023-02-11T11:00:00.579Z,21.50
2023-02-11T11:02:34.442Z,22.70
2023-02-11T11:07:35.080Z,21.58
2023-02-11T11:10:06.123Z,21.52
2023-02-11T11:12:47.879Z,21.25
2023-02-11T11:15:19.914Z,20.48
2023-02-11T11:17:47.679Z,20.50
2023-02-11T11:20:20.164Z,20.90
2023-02-11T11:22:51.026Z,21.08
2023-02-11T11:25:27.062Z,21.02
2023-02-11T11:28:00.006Z,21.42
2023-02-11T11:30:32.903Z,20.27
2023-02-11T11:33:01.930Z,19.73
2023-02-11T11:35:33.995Z,21.15
2023-02-11T11:38:06.089Z,19.55
2023-02-11T11:40:35.425Z,20.83
2023-02-11T11:43:07.774Z,18.65
2023-02-11T11:45:35.632Z,19.45
2023-02-11T11:48:10.818Z,18.63
2023-02-11T11:50:43.520Z,19.10
2023-02-11T11:53:19.784Z,17.70
2023-02-11T11:55:52.261Z,18.45
2023-02-11T11:58:23.553Z,17.95
2023-02-11T12:01:00.488Z,17.70
2023-02-11T12:04:09.064Z,17.20
2023-02-11T12:06:46.874Z,17.23
2023-02-11T12:09:27.824Z,17.60
2023-02-11T12:12:18.813Z,17.33
2023-02-11T12:14:55.111Z,16.67
2023-02-11T12:17:35.960Z,15.60
2023-02-11T12:20:20.527Z,16.58
2023-02-11T12:23:00.776Z,15.82
2023-02-11T12:25:36.905Z,15.88
2023-02-11T12:28:14.909Z,14.55
2023-02-11T12:30:55.185Z,14.60
2023-02-11T12:33:39.438Z,13.00
2023-02-11T12:36:14.103Z,12.07
2023-02-11T12:39:01.246Z,10.68
2023-02-11T12:42:11.177Z,10.85
2023-02-11T12:44:53.373Z,9.00
2023-02-11T12:47:33.562Z,9.55
2023-02-11T12:50:13.905Z,9.95
2023-02-11T12:52:59.460Z,9.73
2023-02-11T12:55:31.215Z,9.57
2023-02-11T12:58:02.659Z,9.40
2023-02-11T13:00:41.545Z,9.77
2023-02-11T13:03:18.027Z,9.95
2023-02-11T13:05:50.500Z,8.82
2023-02-11T13:08:22.542Z,8.63
2023-02-11T13:10:55.023Z,8.88
2023-02-11T13:13:28.368Z,9.40
2023-02-11T13:16:01.233Z,9.60
2023-02-11T13:18:40.792Z,8.27
2023-02-11T13:21:33.466Z,8.48
2023-02-11T13:24:09.351Z,8.80
2023-02-11T13:26:43.831Z,7.80
2023-02-11T13:29:24.140Z,7.60
2023-02-11T13:31:56.487Z,8.35
2023-02-11T13:34:26.260Z,8.93
2023-02-11T13:36:58.302Z,8.15
2023-02-11T13:39:26.344Z,8.10
2023-02-11T13:42:04.224Z,8.13
2023-02-11T13:44:35.440Z,8.13
2023-02-11T13:47:06.081Z,8.13
2023-02-11T13:49:40.597Z,8.25
2023-02-11T13:52:23.984Z,8.18
2023-02-11T13:54:53.993Z,8.83
2023-02-11T13:57:40.780Z,8.48
2023-02-11T14:00:48.556Z,7.47
2023-02-11T14:03:49.882Z,7.00
2023-02-11T14:06:53.297Z,7.70
2023-02-11T14:09:42.433Z,8.00
2023-02-11T14:12:33.999Z,7.95
2023-02-11T14:15:18.427Z,7.68
2023-02-11T14:17:47.769Z,6.88
2023-02-11T14:20:35.663Z,6.32
2023-02-11T14:23:05.589Z,7.07
2023-02-11T14:25:33.628Z,6.45
2023-02-11T14:28:07.795Z,6.30
2023-02-11T14:30:59.836Z,6.80
2023-02-11T14:34:08.938Z,5.47
2023-02-11T14:36:51.935Z,6.63
2023-02-11T14:39:29.750Z,6.35
2023-02-11T14:41:57.809Z,6.22
2023-02-11T14:44:28.042Z,5.85
2023-02-11T14:46:56.862Z,5.78
2023-02-11T14:49:28.395Z,5.03
2023-02-11T14:52:05.058Z,5.72
2023-02-11T14:54:34.988Z,5.93
2023-02-11T14:57:13.170Z,6.10
2023-02-11T14:59:41.671Z,5.70
2023-02-11T15:02:22.950Z,5.95
2023-02-11T15:04:51.263Z,6.25
2023-02-11T15:07:20.478Z,6.65
2023-02-11T15:09:50.224Z,6.07
2023-02-11T15:12:23.615Z,6.55
2023-02-11T15:14:55.228Z,6.88
2023-02-11T15:17:26.574Z,5.97
2023-02-11T15:19:57.411Z,6.25
2023-02-11T15:22:29.596Z,5.82
2023-02-11T15:25:04.030Z,5.75
2023-02-11T15:27:40.827Z,5.35
2023-02-11T15:30:25.884Z,5.82
2023-02-11T15:32:58.615Z,5.68
2023-02-11T15:35:28.637Z,5.70
2023-02-11T15:37:59.090Z,5.60
2023-02-11T15:40:29.169Z,7.70
2023-02-11T15:42:59.144Z,5.82
2023-02-11T15:45:30.355Z,5.72
2023-02-11T15:48:03.516Z,5.55
2023-02-11T15:50:35.849Z,5.88
2023-02-11T15:53:23.034Z,5.40
2023-02-11T15:55:53.566Z,5.65
2023-02-11T15:58:22.894Z,5.15
2023-02-11T16:00:59.591Z,5.25
2023-02-11T16:03:32.509Z,6.95
2023-02-11T16:06:22.389Z,9.93
2023-02-11T16:09:06.262Z,9.32
2023-02-11T16:11:36.672Z,7.13
2023-02-11T16:14:22.434Z,7.28
2023-02-11T16:16:52.790Z,7.60
2023-02-11T16:19:25.335Z,9.07
2023-02-11T16:21:54.683Z,9.70
2023-02-11T16:24:28.441Z,13.63
2023-02-11T16:26:58.762Z,12.05
2023-02-11T16:29:28.812Z,9.75
2023-02-11T16:32:09.091Z,8.95
2023-02-11T16:34:37.353Z,8.48
2023-02-11T16:37:06.554Z,7.18
2023-02-11T16:39:35.971Z,6.28
2023-02-11T16:42:06.440Z,5.97
2023-02-11T16:44:35.630Z,5.50
2023-02-11T16:47:05.888Z,6.40
2023-02-11T16:49:37.176Z,6.28
2023-02-11T16:52:09.116Z,6.30
2023-02-11T16:54:38.203Z,6.50
2023-02-11T16:57:10.297Z,5.82
2023-02-11T16:59:38.096Z,6.60
2023-02-11T17:02:05.955Z,6.75
2023-02-11T17:04:34.403Z,6.50
2023-02-11T17:07:02.212Z,7.57
2023-02-11T17:09:31.018Z,7.13
2023-02-11T17:12:00.511Z,6.20
2023-02-11T17:14:28.373Z,7.07
2023-02-11T17:16:58.283Z,7.18
2023-02-11T17:19:26.188Z,8.35
2023-02-11T17:21:54.429Z,12.38
2023-02-11T17:24:23.290Z,8.93
2023-02-11T17:26:51.520Z,9.27
2023-02-11T17:29:22.937Z,8.15
2023-02-11T17:31:51.794Z,8.00
2023-02-11T17:34:20.486Z,10.27
2023-02-11T17:36:48.292Z,11.00
2023-02-11T17:39:16.651Z,12.70
2023-02-11T17:41:44.471Z,11.43
2023-02-11T17:44:14.113Z,11.20
2023-02-11T17:46:43.424Z,13.88
2023-02-11T17:49:11.949Z,27.48
2023-02-11T17:51:40.765Z,8.57
2023-02-11T17:54:09.975Z,6.82
2023-02-11T17:56:38.043Z,7.30
2023-02-11T17:59:08.355Z,6.05
2023-02-11T18:01:37.801Z,5.43
2023-02-11T18:04:07.942Z,7.57
2023-02-11T18:06:36.216Z,8.98
2023-02-11T18:09:04.519Z,10.38
2023-02-11T18:11:34.000Z,10.43
2023-02-11T18:14:02.631Z,7.72
2023-02-11T18:16:30.866Z,7.90
2023-02-11T18:18:59.496Z,8.50
2023-02-11T18:21:28.714Z,9.00
2023-02-11T18:23:57.002Z,7.43
2023-02-11T18:26:28.070Z,7.53
2023-02-11T18:28:57.668Z,7.50
2023-02-11T18:31:26.452Z,8.02
2023-02-11T18:33:54.631Z,8.18
2023-02-11T18:36:22.923Z,8.55
2023-02-11T18:38:53.647Z,9.75
2023-02-11T18:41:21.701Z,10.23
2023-02-11T18:43:49.610Z,28.30
2023-02-11T18:46:18.105Z,22.42
2023-02-11T18:48:46.086Z,22.20
2023-02-11T18:51:18.350Z,31.83
2023-02-11T18:53:46.617Z,17.83
2023-02-11T18:56:17.928Z,15.68
2023-02-11T18:58:45.801Z,12.90
2023-02-11T19:01:15.813Z,9.75
2023-02-11T19:03:44.083Z,8.68
2023-02-11T19:06:16.057Z,9.02
2023-02-11T19:08:48.069Z,7.93
2023-02-11T19:11:18.760Z,8.90
2023-02-11T19:13:47.722Z,7.90
2023-02-11T19:16:17.715Z,8.43
2023-02-11T19:18:45.522Z,7.57
2023-02-11T19:21:14.103Z,8.50
2023-02-11T19:23:41.907Z,7.07
2023-02-11T19:26:09.701Z,9.25
2023-02-11T19:28:39.220Z,7.95
2023-02-11T19:31:08.856Z,8.68
2023-02-11T19:33:36.878Z,8.88
2023-02-11T19:36:11.902Z,9.55
2023-02-11T19:38:39.810Z,14.00
2023-02-11T19:41:07.592Z,8.15
2023-02-11T19:43:35.412Z,8.25
2023-02-11T19:46:05.685Z,7.85
2023-02-11T19:48:33.822Z,8.20
2023-02-11T19:51:10.865Z,7.95
2023-02-11T19:53:40.615Z,7.97
2023-02-11T19:56:08.711Z,7.53
2023-02-11T19:58:37.250Z,7.75
2023-02-11T20:01:08.827Z,7.78
2023-02-11T20:03:37.190Z,7.85
2023-02-11T20:06:10.453Z,8.10
2023-02-11T20:08:38.260Z,8.70
2023-02-11T20:11:07.982Z,8.35
2023-02-11T20:13:35.823Z,7.80
2023-02-11T20:16:12.263Z,8.82
2023-02-11T20:18:40.862Z,12.55
2023-02-11T20:21:09.862Z,10.75
2023-02-11T20:23:40.299Z,10.00
2023-02-11T20:26:09.102Z,10.20
2023-02-11T20:28:37.276Z,11.15
2023-02-11T20:31:06.432Z,11.30
2023-02-11T20:33:35.872Z,11.30
2023-02-11T20:36:06.609Z,11.20
2023-02-11T20:38:34.439Z,10.93
2023-02-11T20:41:06.481Z,12.23
2023-02-11T20:43:36.974Z,12.38
2023-02-11T20:46:06.689Z,13.73
2023-02-11T20:48:36.090Z,12.60
2023-02-11T20:51:05.754Z,39.63
2023-02-11T20:53:36.356Z,62.97
2023-02-11T20:56:04.663Z,24.90
2023-02-11T20:58:32.450Z,13.48
2023-02-11T21:01:08.149Z,10.05
2023-02-11T21:03:37.392Z,10.95
2023-02-11T21:06:05.480Z,11.48
2023-02-11T21:08:33.340Z,11.65
2023-02-11T21:11:01.931Z,11.55
2023-02-11T21:13:30.038Z,11.35
2023-02-11T21:15:58.483Z,10.80
2023-02-11T21:18:26.729Z,12.40
2023-02-11T21:20:57.418Z,16.70
2023-02-11T21:23:25.847Z,16.38
2023-02-11T21:25:54.958Z,14.63
2023-02-11T21:28:26.388Z,28.67
2023-02-11T21:30:56.176Z,15.48
2023-02-11T21:33:24.897Z,11.02
2023-02-11T21:35:57.450Z,11.82
2023-02-11T21:38:26.203Z,10.57
2023-02-11T21:40:54.749Z,12.18
2023-02-11T21:43:23.058Z,11.52
2023-02-11T21:45:52.384Z,10.23
2023-02-11T21:48:20.368Z,11.55
2023-02-11T21:50:48.607Z,12.05
2023-02-11T21:53:17.775Z,11.98
2023-02-11T21:55:45.668Z,10.73
2023-02-11T21:58:14.148Z,11.70
2023-02-11T22:00:42.016Z,10.88
2023-02-11T22:03:09.857Z,11.80
2023-02-11T22:05:41.136Z,10.80
2023-02-11T22:08:08.898Z,12.10
2023-02-11T22:10:38.978Z,12.23
2023-02-11T22:13:06.713Z,12.20
2023-02-11T22:15:34.456Z,18.33
2023-02-11T22:18:02.192Z,12.55
2023-02-11T22:20:29.986Z,12.40
2023-02-11T22:22:57.728Z,12.63
2023-02-11T22:25:25.520Z,11.23
2023-02-11T22:27:54.664Z,11.57
2023-02-11T22:30:22.715Z,11.65
2023-02-11T22:32:50.528Z,11.88
2023-02-11T22:35:18.467Z,9.18
2023-02-11T22:37:46.178Z,13.13
2023-02-11T22:40:14.717Z,12.52
2023-02-11T22:42:42.467Z,12.52
2023-02-11T22:45:11.841Z,12.48
2023-02-11T22:47:39.625Z,12.30
2023-02-11T22:50:08.702Z,14.07
2023-02-11T22:52:37.028Z,15.32
2023-02-11T22:55:05.512Z,14.52
2023-02-11T22:57:33.263Z,12.27
2023-02-11T23:00:01.010Z,17.10
2023-02-11T23:02:30.183Z,16.50
2023-02-11T23:04:59.422Z,15.30
2023-02-11T23:07:27.143Z,14.98
2023-02-11T23:09:54.850Z,13.50
2023-02-11T23:12:22.608Z,10.45
2023-02-11T23:14:51.906Z,12.40
2023-02-11T23:17:19.708Z,12.10
2023-02-11T23:19:48.821Z,13.25
2023-02-11T23:22:16.616Z,13.45
2023-02-11T23:24:44.345Z,12.38
2023-02-11T23:27:12.079Z,11.05
2023-02-11T23:29:39.790Z,12.88
2023-02-11T23:32:07.822Z,13.18
2023-02-11T23:34:35.608Z,13.60
2023-02-11T23:37:04.701Z,13.07
2023-02-11T23:39:32.481Z,13.25
2023-02-11T23:42:00.203Z,13.32
2023-02-11T23:44:28.100Z,13.93
2023-02-11T23:46:55.922Z,11.15
2023-02-11T23:49:23.810Z,13.15
2023-02-11T23:51:51.597Z,12.63
2023-02-11T23:54:20.714Z,12.55
2023-02-11T23:56:48.421Z,10.13
2023-02-11T23:59:17.037Z,13.43
